sensor_id;sensor_type;location;lat;lon;timestamp;temperature;humidity
65046;DHT22;54657;52.022;5.534;2022-08-25T00:01:10;23.20;65.50
65046;DHT22;54657;52.022;5.534;2022-08-25T00:03:36;23.10;65.40
65046;DHT22;54657;52.022;5.534;2022-08-25T00:06:03;23.10;65.60
65046;DHT22;54657;52.022;5.534;2022-08-25T00:08:28;23.10;65.70
65046;DHT22;54657;52.022;5.534;2022-08-25T00:10:54;23.00;65.90
65046;DHT22;54657;52.022;5.534;2022-08-25T00:13:19;22.90;66.00
65046;DHT22;54657;52.022;5.534;2022-08-25T00:15:44;22.90;66.00
65046;DHT22;54657;52.022;5.534;2022-08-25T00:18:11;22.90;65.80
65046;DHT22;54657;52.022;5.534;2022-08-25T00:20:36;23.00;66.00
65046;DHT22;54657;52.022;5.534;2022-08-25T00:23:02;22.90;65.90
65046;DHT22;54657;52.022;5.534;2022-08-25T00:25:27;22.90;65.90
65046;DHT22;54657;52.022;5.534;2022-08-25T00:27:53;22.80;65.90
65046;DHT22;54657;52.022;5.534;2022-08-25T00:30:18;22.90;65.90
65046;DHT22;54657;52.022;5.534;2022-08-25T00:32:44;22.80;65.80
65046;DHT22;54657;52.022;5.534;2022-08-25T00:35:10;22.80;65.90
65046;DHT22;54657;52.022;5.534;2022-08-25T00:37:35;22.80;66.00
65046;DHT22;54657;52.022;5.534;2022-08-25T00:40:02;22.80;66.00
65046;DHT22;54657;52.022;5.534;2022-08-25T00:42:27;22.80;66.00
65046;DHT22;54657;52.022;5.534;2022-08-25T00:44:53;22.70;66.30
65046;DHT22;54657;52.022;5.534;2022-08-25T00:47:19;22.70;66.40
65046;DHT22;54657;52.022;5.534;2022-08-25T00:49:52;22.70;66.40
65046;DHT22;54657;52.022;5.534;2022-08-25T00:52:23;22.60;66.40
65046;DHT22;54657;52.022;5.534;2022-08-25T00:54:51;22.60;66.70
65046;DHT22;54657;52.022;5.534;2022-08-25T00:57:19;22.60;66.60
65046;DHT22;54657;52.022;5.534;2022-08-25T00:59:45;22.60;66.60
65046;DHT22;54657;52.022;5.534;2022-08-25T01:02:11;22.60;66.60
65046;DHT22;54657;52.022;5.534;2022-08-25T01:04:37;22.60;66.60
65046;DHT22;54657;52.022;5.534;2022-08-25T01:07:02;22.50;66.70
65046;DHT22;54657;52.022;5.534;2022-08-25T01:09:29;22.50;66.90
65046;DHT22;54657;52.022;5.534;2022-08-25T01:11:57;22.50;66.70
65046;DHT22;54657;52.022;5.534;2022-08-25T01:14:22;22.50;66.70
65046;DHT22;54657;52.022;5.534;2022-08-25T01:16:48;22.50;66.90
65046;DHT22;54657;52.022;5.534;2022-08-25T01:19:14;22.50;66.90
65046;DHT22;54657;52.022;5.534;2022-08-25T01:21:47;22.50;67.10
65046;DHT22;54657;52.022;5.534;2022-08-25T01:24:15;22.50;67.00
65046;DHT22;54657;52.022;5.534;2022-08-25T01:26:45;22.50;67.10
65046;DHT22;54657;52.022;5.534;2022-08-25T01:29:11;22.50;67.10
65046;DHT22;54657;52.022;5.534;2022-08-25T01:31:49;22.50;67.30
65046;DHT22;54657;52.022;5.534;2022-08-25T01:34:15;22.50;67.20
65046;DHT22;54657;52.022;5.534;2022-08-25T01:36:41;22.50;67.30
65046;DHT22;54657;52.022;5.534;2022-08-25T01:39:07;22.50;67.10
65046;DHT22;54657;52.022;5.534;2022-08-25T01:43:59;22.50;67.20
65046;DHT22;54657;52.022;5.534;2022-08-25T01:46:25;22.40;67.20
65046;DHT22;54657;52.022;5.534;2022-08-25T01:48:50;22.40;67.30
65046;DHT22;54657;52.022;5.534;2022-08-25T01:51:16;22.50;67.40
65046;DHT22;54657;52.022;5.534;2022-08-25T01:53:43;22.50;67.40
65046;DHT22;54657;52.022;5.534;2022-08-25T01:56:09;22.50;68.10
65046;DHT22;54657;52.022;5.534;2022-08-25T01:58:36;22.50;67.50
65046;DHT22;54657;52.022;5.534;2022-08-25T02:01:03;22.50;67.60
65046;DHT22;54657;52.022;5.534;2022-08-25T02:03:29;22.40;67.60
65046;DHT22;54657;52.022;5.534;2022-08-25T02:05:56;22.40;67.70
65046;DHT22;54657;52.022;5.534;2022-08-25T02:08:22;22.40;67.80
65046;DHT22;54657;52.022;5.534;2022-08-25T02:10:48;22.40;67.70
65046;DHT22;54657;52.022;5.534;2022-08-25T02:13:14;22.40;67.70
65046;DHT22;54657;52.022;5.534;2022-08-25T02:15:40;22.40;67.80
65046;DHT22;54657;52.022;5.534;2022-08-25T02:18:07;22.40;67.80
65046;DHT22;54657;52.022;5.534;2022-08-25T02:20:32;22.40;68.00
65046;DHT22;54657;52.022;5.534;2022-08-25T02:22:58;22.40;67.90
65046;DHT22;54657;52.022;5.534;2022-08-25T02:25:23;22.50;68.00
65046;DHT22;54657;52.022;5.534;2022-08-25T02:27:49;22.40;67.90
65046;DHT22;54657;52.022;5.534;2022-08-25T02:30:15;22.50;68.10
65046;DHT22;54657;52.022;5.534;2022-08-25T02:32:41;22.40;68.10
65046;DHT22;54657;52.022;5.534;2022-08-25T02:35:06;22.40;68.10
65046;DHT22;54657;52.022;5.534;2022-08-25T02:37:32;22.40;68.70
65046;DHT22;54657;52.022;5.534;2022-08-25T02:39:58;22.40;68.30
65046;DHT22;54657;52.022;5.534;2022-08-25T02:42:24;22.50;68.10
65046;DHT22;54657;52.022;5.534;2022-08-25T02:44:49;22.40;67.50
65046;DHT22;54657;52.022;5.534;2022-08-25T02:47:15;22.50;66.60
65046;DHT22;54657;52.022;5.534;2022-08-25T02:49:41;22.40;67.10
65046;DHT22;54657;52.022;5.534;2022-08-25T02:52:06;22.50;67.20
65046;DHT22;54657;52.022;5.534;2022-08-25T02:54:32;22.50;66.60
65046;DHT22;54657;52.022;5.534;2022-08-25T02:56:58;22.50;66.20
65046;DHT22;54657;52.022;5.534;2022-08-25T02:59:24;22.40;66.40
65046;DHT22;54657;52.022;5.534;2022-08-25T03:01:49;22.50;66.00
65046;DHT22;54657;52.022;5.534;2022-08-25T03:04:15;22.50;66.00
65046;DHT22;54657;52.022;5.534;2022-08-25T03:06:40;22.50;65.00
65046;DHT22;54657;52.022;5.534;2022-08-25T03:09:06;22.50;65.40
65046;DHT22;54657;52.022;5.534;2022-08-25T03:11:31;22.40;64.70
65046;DHT22;54657;52.022;5.534;2022-08-25T03:13:57;22.40;65.10
65046;DHT22;54657;52.022;5.534;2022-08-25T03:16:23;22.50;64.90
65046;DHT22;54657;52.022;5.534;2022-08-25T03:18:48;22.50;64.90
65046;DHT22;54657;52.022;5.534;2022-08-25T03:21:14;22.50;64.60
65046;DHT22;54657;52.022;5.534;2022-08-25T03:23:40;22.50;64.40
65046;DHT22;54657;52.022;5.534;2022-08-25T03:26:05;22.50;64.50
65046;DHT22;54657;52.022;5.534;2022-08-25T03:28:50;22.50;63.60
65046;DHT22;54657;52.022;5.534;2022-08-25T03:31:15;22.40;63.30
65046;DHT22;54657;52.022;5.534;2022-08-25T03:33:41;22.40;63.80
65046;DHT22;54657;52.022;5.534;2022-08-25T03:36:07;22.40;63.90
65046;DHT22;54657;52.022;5.534;2022-08-25T03:38:33;22.50;63.90
65046;DHT22;54657;52.022;5.534;2022-08-25T03:40:58;22.40;63.80
65046;DHT22;54657;52.022;5.534;2022-08-25T03:43:24;22.40;63.60
65046;DHT22;54657;52.022;5.534;2022-08-25T03:45:49;22.40;63.40
65046;DHT22;54657;52.022;5.534;2022-08-25T03:48:15;22.40;63.40
65046;DHT22;54657;52.022;5.534;2022-08-25T03:50:45;22.40;63.30
65046;DHT22;54657;52.022;5.534;2022-08-25T03:53:11;22.40;62.80
65046;DHT22;54657;52.022;5.534;2022-08-25T03:55:37;22.40;63.10
65046;DHT22;54657;52.022;5.534;2022-08-25T03:58:02;22.30;63.00
65046;DHT22;54657;52.022;5.534;2022-08-25T04:00:28;22.30;63.10
65046;DHT22;54657;52.022;5.534;2022-08-25T04:02:53;22.30;63.10
65046;DHT22;54657;52.022;5.534;2022-08-25T04:05:19;22.30;63.10
65046;DHT22;54657;52.022;5.534;2022-08-25T04:07:44;22.30;63.10
65046;DHT22;54657;52.022;5.534;2022-08-25T04:10:10;22.30;63.10
65046;DHT22;54657;52.022;5.534;2022-08-25T04:12:36;22.20;63.00
65046;DHT22;54657;52.022;5.534;2022-08-25T04:15:05;22.20;63.00
65046;DHT22;54657;52.022;5.534;2022-08-25T04:17:31;22.20;62.80
65046;DHT22;54657;52.022;5.534;2022-08-25T04:19:57;22.20;62.70
65046;DHT22;54657;52.022;5.534;2022-08-25T04:22:23;22.20;62.70
65046;DHT22;54657;52.022;5.534;2022-08-25T04:24:49;22.20;62.70
65046;DHT22;54657;52.022;5.534;2022-08-25T04:27:14;22.10;62.60
65046;DHT22;54657;52.022;5.534;2022-08-25T04:29:40;22.10;62.70
65046;DHT22;54657;52.022;5.534;2022-08-25T04:32:05;22.10;62.60
65046;DHT22;54657;52.022;5.534;2022-08-25T04:34:31;22.10;62.60
65046;DHT22;54657;52.022;5.534;2022-08-25T04:37:00;22.00;62.60
65046;DHT22;54657;52.022;5.534;2022-08-25T04:39:26;21.90;62.50
65046;DHT22;54657;52.022;5.534;2022-08-25T04:41:52;21.90;62.70
65046;DHT22;54657;52.022;5.534;2022-08-25T04:44:17;21.90;62.80
65046;DHT22;54657;52.022;5.534;2022-08-25T04:46:43;21.90;62.90
65046;DHT22;54657;52.022;5.534;2022-08-25T04:49:08;22.00;62.90
65046;DHT22;54657;52.022;5.534;2022-08-25T04:51:38;21.90;62.70
65046;DHT22;54657;52.022;5.534;2022-08-25T04:54:05;21.90;62.70
65046;DHT22;54657;52.022;5.534;2022-08-25T04:56:31;21.90;62.70
65046;DHT22;54657;52.022;5.534;2022-08-25T04:59:00;21.90;62.60
65046;DHT22;54657;52.022;5.534;2022-08-25T05:01:26;21.80;62.50
65046;DHT22;54657;52.022;5.534;2022-08-25T05:03:53;21.90;62.60
65046;DHT22;54657;52.022;5.534;2022-08-25T05:06:19;21.90;62.50
65046;DHT22;54657;52.022;5.534;2022-08-25T05:08:45;21.90;62.40
65046;DHT22;54657;52.022;5.534;2022-08-25T05:11:11;21.90;62.40
65046;DHT22;54657;52.022;5.534;2022-08-25T05:13:40;21.90;62.30
65046;DHT22;54657;52.022;5.534;2022-08-25T05:16:06;21.90;61.90
65046;DHT22;54657;52.022;5.534;2022-08-25T05:18:32;21.90;61.50
65046;DHT22;54657;52.022;5.534;2022-08-25T05:21:05;21.90;61.50
65046;DHT22;54657;52.022;5.534;2022-08-25T05:23:31;21.90;61.30
65046;DHT22;54657;52.022;5.534;2022-08-25T05:26:00;21.90;61.30
65046;DHT22;54657;52.022;5.534;2022-08-25T05:28:26;21.90;61.30
65046;DHT22;54657;52.022;5.534;2022-08-25T05:30:56;21.90;61.30
65046;DHT22;54657;52.022;5.534;2022-08-25T05:33:22;21.90;61.10
65046;DHT22;54657;52.022;5.534;2022-08-25T05:35:47;22.00;60.80
65046;DHT22;54657;52.022;5.534;2022-08-25T05:38:12;21.90;60.60
65046;DHT22;54657;52.022;5.534;2022-08-25T05:40:38;22.00;60.60
65046;DHT22;54657;52.022;5.534;2022-08-25T05:43:03;22.00;60.80
65046;DHT22;54657;52.022;5.534;2022-08-25T05:45:29;22.00;61.00
65046;DHT22;54657;52.022;5.534;2022-08-25T05:47:56;22.10;61.20
65046;DHT22;54657;52.022;5.534;2022-08-25T05:50:22;22.10;60.80
65046;DHT22;54657;52.022;5.534;2022-08-25T05:52:48;22.20;60.90
65046;DHT22;54657;52.022;5.534;2022-08-25T05:55:13;22.20;60.80
65046;DHT22;54657;52.022;5.534;2022-08-25T05:57:40;22.30;60.80
65046;DHT22;54657;52.022;5.534;2022-08-25T06:00:06;22.30;60.70
65046;DHT22;54657;52.022;5.534;2022-08-25T06:02:32;22.40;60.10
65046;DHT22;54657;52.022;5.534;2022-08-25T06:05:09;22.40;60.20
65046;DHT22;54657;52.022;5.534;2022-08-25T06:07:34;22.40;60.30
65046;DHT22;54657;52.022;5.534;2022-08-25T06:10:01;22.50;60.00
65046;DHT22;54657;52.022;5.534;2022-08-25T06:12:27;22.60;60.30
65046;DHT22;54657;52.022;5.534;2022-08-25T06:14:52;22.60;60.30
65046;DHT22;54657;52.022;5.534;2022-08-25T06:17:18;22.70;59.60
65046;DHT22;54657;52.022;5.534;2022-08-25T06:19:43;22.80;59.80
65046;DHT22;54657;52.022;5.534;2022-08-25T06:22:09;22.80;59.40
65046;DHT22;54657;52.022;5.534;2022-08-25T06:24:34;22.90;59.00
65046;DHT22;54657;52.022;5.534;2022-08-25T06:27:00;23.00;59.00
65046;DHT22;54657;52.022;5.534;2022-08-25T06:29:25;23.00;58.30
65046;DHT22;54657;52.022;5.534;2022-08-25T06:31:51;23.10;58.70
65046;DHT22;54657;52.022;5.534;2022-08-25T06:34:17;23.20;58.60
65046;DHT22;54657;52.022;5.534;2022-08-25T06:36:42;23.30;58.70
65046;DHT22;54657;52.022;5.534;2022-08-25T06:39:08;23.30;57.80
65046;DHT22;54657;52.022;5.534;2022-08-25T06:41:35;23.40;57.60
65046;DHT22;54657;52.022;5.534;2022-08-25T06:44:00;23.50;57.70
65046;DHT22;54657;52.022;5.534;2022-08-25T06:46:26;23.50;57.50
65046;DHT22;54657;52.022;5.534;2022-08-25T06:48:52;23.60;57.10
65046;DHT22;54657;52.022;5.534;2022-08-25T06:51:19;23.60;57.20
65046;DHT22;54657;52.022;5.534;2022-08-25T06:53:46;23.60;56.80
65046;DHT22;54657;52.022;5.534;2022-08-25T06:56:11;23.70;56.70
65046;DHT22;54657;52.022;5.534;2022-08-25T06:58:37;23.70;56.80
65046;DHT22;54657;52.022;5.534;2022-08-25T07:01:07;23.70;56.60
65046;DHT22;54657;52.022;5.534;2022-08-25T07:03:33;23.70;56.50
65046;DHT22;54657;52.022;5.534;2022-08-25T07:05:58;23.80;56.70
65046;DHT22;54657;52.022;5.534;2022-08-25T07:08:24;23.90;56.80
65046;DHT22;54657;52.022;5.534;2022-08-25T07:10:50;23.90;56.50
65046;DHT22;54657;52.022;5.534;2022-08-25T07:13:16;24.00;56.40
65046;DHT22;54657;52.022;5.534;2022-08-25T07:15:42;24.10;55.70
65046;DHT22;54657;52.022;5.534;2022-08-25T07:18:08;24.20;56.10
65046;DHT22;54657;52.022;5.534;2022-08-25T07:20:38;24.30;56.00
65046;DHT22;54657;52.022;5.534;2022-08-25T07:23:04;24.40;56.00
65046;DHT22;54657;52.022;5.534;2022-08-25T07:25:29;24.50;55.50
65046;DHT22;54657;52.022;5.534;2022-08-25T07:27:55;24.60;55.50
65046;DHT22;54657;52.022;5.534;2022-08-25T07:30:21;24.70;55.50
65046;DHT22;54657;52.022;5.534;2022-08-25T07:32:47;24.80;55.30
65046;DHT22;54657;52.022;5.534;2022-08-25T07:35:12;25.00;55.20
65046;DHT22;54657;52.022;5.534;2022-08-25T07:37:49;25.00;54.80
65046;DHT22;54657;52.022;5.534;2022-08-25T07:40:16;25.10;55.20
65046;DHT22;54657;52.022;5.534;2022-08-25T07:42:42;25.10;54.00
65046;DHT22;54657;52.022;5.534;2022-08-25T07:45:08;25.10;54.60
65046;DHT22;54657;52.022;5.534;2022-08-25T07:47:35;25.30;54.80
65046;DHT22;54657;52.022;5.534;2022-08-25T07:50:00;25.30;54.40
65046;DHT22;54657;52.022;5.534;2022-08-25T07:52:26;25.40;54.90
65046;DHT22;54657;52.022;5.534;2022-08-25T07:54:52;25.50;54.00
65046;DHT22;54657;52.022;5.534;2022-08-25T07:57:19;25.50;53.70
65046;DHT22;54657;52.022;5.534;2022-08-25T07:59:46;25.50;54.50
65046;DHT22;54657;52.022;5.534;2022-08-25T08:02:12;25.60;54.10
65046;DHT22;54657;52.022;5.534;2022-08-25T08:04:37;25.60;53.80
65046;DHT22;54657;52.022;5.534;2022-08-25T08:07:03;25.70;54.00
65046;DHT22;54657;52.022;5.534;2022-08-25T08:09:29;25.70;54.50
65046;DHT22;54657;52.022;5.534;2022-08-25T08:11:57;25.80;54.10
65046;DHT22;54657;52.022;5.534;2022-08-25T08:14:23;25.90;53.60
65046;DHT22;54657;52.022;5.534;2022-08-25T08:16:48;25.90;53.80
65046;DHT22;54657;52.022;5.534;2022-08-25T08:19:14;26.00;53.50
65046;DHT22;54657;52.022;5.534;2022-08-25T08:21:40;26.10;54.60
65046;DHT22;54657;52.022;5.534;2022-08-25T08:24:06;26.10;53.20
65046;DHT22;54657;52.022;5.534;2022-08-25T08:26:31;26.20;52.80
65046;DHT22;54657;52.022;5.534;2022-08-25T08:28:57;26.30;53.70
65046;DHT22;54657;52.022;5.534;2022-08-25T08:31:23;26.30;53.60
65046;DHT22;54657;52.022;5.534;2022-08-25T08:33:51;26.40;53.30
65046;DHT22;54657;52.022;5.534;2022-08-25T08:36:17;26.40;53.80
65046;DHT22;54657;52.022;5.534;2022-08-25T08:38:43;26.50;53.10
65046;DHT22;54657;52.022;5.534;2022-08-25T08:47:20;26.60;51.70
65046;DHT22;54657;52.022;5.534;2022-08-25T08:49:22;26.70;50.90
65046;DHT22;54657;52.022;5.534;2022-08-25T08:51:52;26.80;53.60
65046;DHT22;54657;52.022;5.534;2022-08-25T08:54:19;26.90;52.10
65046;DHT22;54657;52.022;5.534;2022-08-25T08:56:49;27.00;50.50
65046;DHT22;54657;52.022;5.534;2022-08-25T08:59:23;27.10;50.80
65046;DHT22;54657;52.022;5.534;2022-08-25T09:01:51;27.10;51.60
65046;DHT22;54657;52.022;5.534;2022-08-25T09:07:09;27.30;51.00
65046;DHT22;54657;52.022;5.534;2022-08-25T09:09:35;27.40;50.70
65046;DHT22;54657;52.022;5.534;2022-08-25T09:14:36;27.50;50.60
65046;DHT22;54657;52.022;5.534;2022-08-25T09:27:29;28.00;50.40
65046;DHT22;54657;52.022;5.534;2022-08-25T09:32:23;28.10;48.40
65046;DHT22;54657;52.022;5.534;2022-08-25T09:34:49;28.20;52.40
65046;DHT22;54657;52.022;5.534;2022-08-25T09:37:15;28.40;51.40
65046;DHT22;54657;52.022;5.534;2022-08-25T09:39:40;28.40;52.20
65046;DHT22;54657;52.022;5.534;2022-08-25T09:42:06;28.50;50.00
65046;DHT22;54657;52.022;5.534;2022-08-25T09:44:33;28.50;49.20
65046;DHT22;54657;52.022;5.534;2022-08-25T09:54:47;28.90;52.60
65046;DHT22;54657;52.022;5.534;2022-08-25T09:57:31;29.00;48.90
65046;DHT22;54657;52.022;5.534;2022-08-25T10:02:43;29.20;52.10
65046;DHT22;54657;52.022;5.534;2022-08-25T10:07:48;29.30;47.00
65046;DHT22;54657;52.022;5.534;2022-08-25T10:10:21;29.40;47.10
65046;DHT22;54657;52.022;5.534;2022-08-25T10:12:47;29.50;46.50
65046;DHT22;54657;52.022;5.534;2022-08-25T10:17:41;29.70;49.10
65046;DHT22;54657;52.022;5.534;2022-08-25T10:22:35;29.90;48.80
65046;DHT22;54657;52.022;5.534;2022-08-25T10:25:02;29.90;48.80
65046;DHT22;54657;52.022;5.534;2022-08-25T10:32:35;30.10;46.90
65046;DHT22;54657;52.022;5.534;2022-08-25T10:35:08;30.10;47.30
65046;DHT22;54657;52.022;5.534;2022-08-25T10:37:41;30.20;45.10
65046;DHT22;54657;52.022;5.534;2022-08-25T10:40:14;30.30;49.60
65046;DHT22;54657;52.022;5.534;2022-08-25T10:42:59;30.40;43.30
65046;DHT22;54657;52.022;5.534;2022-08-25T10:45:28;30.50;43.00
65046;DHT22;54657;52.022;5.534;2022-08-25T10:48:27;30.50;50.30
65046;DHT22;54657;52.022;5.534;2022-08-25T10:53:27;30.60;49.00
65046;DHT22;54657;52.022;5.534;2022-08-25T10:58:24;30.60;45.30
65046;DHT22;54657;52.022;5.534;2022-08-25T11:01:08;30.70;42.60
65046;DHT22;54657;52.022;5.534;2022-08-25T11:03:49;30.70;43.20
65046;DHT22;54657;52.022;5.534;2022-08-25T11:06:17;30.90;48.80
65046;DHT22;54657;52.022;5.534;2022-08-25T11:08:46;30.80;44.90
65046;DHT22;54657;52.022;5.534;2022-08-25T11:11:16;30.90;41.20
65046;DHT22;54657;52.022;5.534;2022-08-25T11:16:41;31.00;49.00
65046;DHT22;54657;52.022;5.534;2022-08-25T11:21:49;31.00;42.20
65046;DHT22;54657;52.022;5.534;2022-08-25T11:24:25;31.10;38.80
65046;DHT22;54657;52.022;5.534;2022-08-25T11:26:54;31.10;48.10
65046;DHT22;54657;52.022;5.534;2022-08-25T11:29:20;31.10;39.80
65046;DHT22;54657;52.022;5.534;2022-08-25T11:31:48;31.20;46.20
65046;DHT22;54657;52.022;5.534;2022-08-25T11:34:14;31.20;45.00
65046;DHT22;54657;52.022;5.534;2022-08-25T11:37:03;31.20;38.10
65046;DHT22;54657;52.022;5.534;2022-08-25T11:47:32;31.40;47.80
65046;DHT22;54657;52.022;5.534;2022-08-25T11:50:22;31.40;45.20
65046;DHT22;54657;52.022;5.534;2022-08-25T11:52:53;31.50;43.70
65046;DHT22;54657;52.022;5.534;2022-08-25T11:55:28;31.50;44.30
65046;DHT22;54657;52.022;5.534;2022-08-25T12:00:40;31.50;40.10
65046;DHT22;54657;52.022;5.534;2022-08-25T12:05:51;31.50;39.10
65046;DHT22;54657;52.022;5.534;2022-08-25T12:14:33;31.70;37.60
65046;DHT22;54657;52.022;5.534;2022-08-25T12:17:05;31.80;45.00
65046;DHT22;54657;52.022;5.534;2022-08-25T12:24:42;31.80;44.50
65046;DHT22;54657;52.022;5.534;2022-08-25T12:27:19;31.70;48.10
65046;DHT22;54657;52.022;5.534;2022-08-25T12:30:20;31.60;37.00
65046;DHT22;54657;52.022;5.534;2022-08-25T12:43:21;31.60;38.80
65046;DHT22;54657;52.022;5.534;2022-08-25T12:45:49;31.70;39.60
65046;DHT22;54657;52.022;5.534;2022-08-25T12:50:56;31.90;44.60
65046;DHT22;54657;52.022;5.534;2022-08-25T12:53:39;32.00;45.70
65046;DHT22;54657;52.022;5.534;2022-08-25T12:56:09;32.00;45.80
65046;DHT22;54657;52.022;5.534;2022-08-25T12:58:50;32.00;40.00
65046;DHT22;54657;52.022;5.534;2022-08-25T13:01:22;32.10;39.40
65046;DHT22;54657;52.022;5.534;2022-08-25T13:06:29;32.20;43.20
65046;DHT22;54657;52.022;5.534;2022-08-25T13:09:10;32.10;41.00
65046;DHT22;54657;52.022;5.534;2022-08-25T13:11:42;32.20;44.20
65046;DHT22;54657;52.022;5.534;2022-08-25T13:16:39;32.30;41.90
65046;DHT22;54657;52.022;5.534;2022-08-25T13:19:05;32.30;38.90
65046;DHT22;54657;52.022;5.534;2022-08-25T13:21:38;32.30;38.50
65046;DHT22;54657;52.022;5.534;2022-08-25T13:26:49;32.30;37.20
65046;DHT22;54657;52.022;5.534;2022-08-25T13:29:21;32.30;40.40
65046;DHT22;54657;52.022;5.534;2022-08-25T13:31:52;32.30;36.30
65046;DHT22;54657;52.022;5.534;2022-08-25T13:34:20;32.40;35.50
65046;DHT22;54657;52.022;5.534;2022-08-25T13:36:47;32.40;38.30
65046;DHT22;54657;52.022;5.534;2022-08-25T13:39:31;32.40;39.10
65046;DHT22;54657;52.022;5.534;2022-08-25T13:42:00;32.40;39.50
65046;DHT22;54657;52.022;5.534;2022-08-25T13:44:27;32.40;41.00
65046;DHT22;54657;52.022;5.534;2022-08-25T13:47:07;32.50;39.70
65046;DHT22;54657;52.022;5.534;2022-08-25T13:49:33;32.50;42.40
65046;DHT22;54657;52.022;5.534;2022-08-25T13:51:59;32.50;38.60
65046;DHT22;54657;52.022;5.534;2022-08-25T13:54:26;32.50;38.10
65046;DHT22;54657;52.022;5.534;2022-08-25T13:56:52;32.50;35.10
65046;DHT22;54657;52.022;5.534;2022-08-25T13:59:27;32.50;39.70
65046;DHT22;54657;52.022;5.534;2022-08-25T14:01:55;32.50;43.10
65046;DHT22;54657;52.022;5.534;2022-08-25T14:07:13;32.40;48.30
65046;DHT22;54657;52.022;5.534;2022-08-25T14:09:49;32.40;39.50
65046;DHT22;54657;52.022;5.534;2022-08-25T14:17:44;32.40;39.00
65046;DHT22;54657;52.022;5.534;2022-08-25T14:20:18;32.50;41.60
65046;DHT22;54657;52.022;5.534;2022-08-25T14:22:44;32.40;40.20
65046;DHT22;54657;52.022;5.534;2022-08-25T14:25:10;32.40;43.70
65046;DHT22;54657;52.022;5.534;2022-08-25T14:27:35;32.40;39.80
65046;DHT22;54657;52.022;5.534;2022-08-25T14:30:01;32.30;45.30
65046;DHT22;54657;52.022;5.534;2022-08-25T14:32:26;32.40;46.20
65046;DHT22;54657;52.022;5.534;2022-08-25T14:34:52;32.30;45.70
65046;DHT22;54657;52.022;5.534;2022-08-25T14:37:18;32.20;38.20
65046;DHT22;54657;52.022;5.534;2022-08-25T14:39:44;32.20;39.20
65046;DHT22;54657;52.022;5.534;2022-08-25T14:42:10;32.30;38.20
65046;DHT22;54657;52.022;5.534;2022-08-25T14:44:36;32.30;37.90
65046;DHT22;54657;52.022;5.534;2022-08-25T14:47:01;32.30;39.90
65046;DHT22;54657;52.022;5.534;2022-08-25T14:49:28;32.30;36.30
65046;DHT22;54657;52.022;5.534;2022-08-25T14:52:08;32.30;40.10
65046;DHT22;54657;52.022;5.534;2022-08-25T14:54:34;32.40;39.10
65046;DHT22;54657;52.022;5.534;2022-08-25T14:56:59;32.30;38.10
65046;DHT22;54657;52.022;5.534;2022-08-25T14:59:25;32.20;42.50
65046;DHT22;54657;52.022;5.534;2022-08-25T15:01:51;32.20;39.80
65046;DHT22;54657;52.022;5.534;2022-08-25T15:04:18;32.20;37.00
65046;DHT22;54657;52.022;5.534;2022-08-25T15:06:44;32.20;38.10
65046;DHT22;54657;52.022;5.534;2022-08-25T15:09:10;32.20;39.70
65046;DHT22;54657;52.022;5.534;2022-08-25T15:11:44;32.30;41.40
65046;DHT22;54657;52.022;5.534;2022-08-25T15:14:11;32.30;44.80
65046;DHT22;54657;52.022;5.534;2022-08-25T15:16:40;32.30;38.00
65046;DHT22;54657;52.022;5.534;2022-08-25T15:19:06;32.40;37.70
65046;DHT22;54657;52.022;5.534;2022-08-25T15:21:33;32.40;38.70
65046;DHT22;54657;52.022;5.534;2022-08-25T15:23:59;32.30;38.70
65046;DHT22;54657;52.022;5.534;2022-08-25T15:26:25;32.40;38.10
65046;DHT22;54657;52.022;5.534;2022-08-25T15:28:50;32.30;39.10
65046;DHT22;54657;52.022;5.534;2022-08-25T15:31:17;32.30;39.30
65046;DHT22;54657;52.022;5.534;2022-08-25T15:33:42;32.20;33.50
65046;DHT22;54657;52.022;5.534;2022-08-25T15:36:09;32.20;37.80
65046;DHT22;54657;52.022;5.534;2022-08-25T15:38:38;32.20;38.00
65046;DHT22;54657;52.022;5.534;2022-08-25T15:41:05;32.20;38.00
65046;DHT22;54657;52.022;5.534;2022-08-25T15:43:30;32.20;36.60
65046;DHT22;54657;52.022;5.534;2022-08-25T15:45:56;32.20;37.40
65046;DHT22;54657;52.022;5.534;2022-08-25T15:48:22;32.10;35.00
65046;DHT22;54657;52.022;5.534;2022-08-25T15:50:47;32.10;36.40
65046;DHT22;54657;52.022;5.534;2022-08-25T15:53:16;32.10;37.50
65046;DHT22;54657;52.022;5.534;2022-08-25T15:55:42;32.10;37.20
65046;DHT22;54657;52.022;5.534;2022-08-25T15:58:07;32.10;36.00
65046;DHT22;54657;52.022;5.534;2022-08-25T16:00:33;32.10;37.10
65046;DHT22;54657;52.022;5.534;2022-08-25T16:02:58;32.10;37.90
65046;DHT22;54657;52.022;5.534;2022-08-25T16:05:24;32.00;37.70
65046;DHT22;54657;52.022;5.534;2022-08-25T16:07:49;32.00;38.40
65046;DHT22;54657;52.022;5.534;2022-08-25T16:10:14;32.00;35.30
65046;DHT22;54657;52.022;5.534;2022-08-25T16:12:40;32.00;38.50
65046;DHT22;54657;52.022;5.534;2022-08-25T16:15:06;31.90;35.70
65046;DHT22;54657;52.022;5.534;2022-08-25T16:17:32;31.90;36.30
65046;DHT22;54657;52.022;5.534;2022-08-25T16:19:57;31.90;39.00
65046;DHT22;54657;52.022;5.534;2022-08-25T16:22:22;31.80;35.30
65046;DHT22;54657;52.022;5.534;2022-08-25T16:24:48;31.80;35.40
65046;DHT22;54657;52.022;5.534;2022-08-25T16:27:13;31.70;38.50
65046;DHT22;54657;52.022;5.534;2022-08-25T16:29:40;31.70;36.80
65046;DHT22;54657;52.022;5.534;2022-08-25T16:32:07;31.60;36.10
65046;DHT22;54657;52.022;5.534;2022-08-25T16:34:32;31.60;36.90
65046;DHT22;54657;52.022;5.534;2022-08-25T16:36:58;31.50;39.30
65046;DHT22;54657;52.022;5.534;2022-08-25T16:39:24;31.50;38.30
65046;DHT22;54657;52.022;5.534;2022-08-25T16:41:49;31.40;38.90
65046;DHT22;54657;52.022;5.534;2022-08-25T16:44:16;31.40;38.70
65046;DHT22;54657;52.022;5.534;2022-08-25T16:46:41;31.40;38.10
65046;DHT22;54657;52.022;5.534;2022-08-25T16:49:08;31.30;38.90
65046;DHT22;54657;52.022;5.534;2022-08-25T16:51:33;31.30;38.70
65046;DHT22;54657;52.022;5.534;2022-08-25T16:54:00;31.30;39.00
65046;DHT22;54657;52.022;5.534;2022-08-25T16:56:44;31.30;39.10
65046;DHT22;54657;52.022;5.534;2022-08-25T16:59:10;31.20;39.30
65046;DHT22;54657;52.022;5.534;2022-08-25T17:01:36;31.20;39.20
65046;DHT22;54657;52.022;5.534;2022-08-25T17:04:02;31.20;39.30
65046;DHT22;54657;52.022;5.534;2022-08-25T17:06:28;31.20;39.00
65046;DHT22;54657;52.022;5.534;2022-08-25T17:08:54;31.00;39.60
65046;DHT22;54657;52.022;5.534;2022-08-25T17:11:27;31.00;39.80
65046;DHT22;54657;52.022;5.534;2022-08-25T17:13:55;31.00;38.20
65046;DHT22;54657;52.022;5.534;2022-08-25T17:16:22;30.90;40.10
65046;DHT22;54657;52.022;5.534;2022-08-25T17:18:50;30.90;40.10
65046;DHT22;54657;52.022;5.534;2022-08-25T17:21:17;30.80;39.10
65046;DHT22;54657;52.022;5.534;2022-08-25T17:23:43;30.80;40.40
65046;DHT22;54657;52.022;5.534;2022-08-25T17:26:13;30.80;40.70